Detall de PIREP

Printer-friendly versionPDF version

[2014/07/27 09:41:00]
Flight IATA:CT2205
Pilot Number:044
Company ICAO:CAT
Aircraft Type:F100/A
PAX:101
Aircraft Registration:PFJ
Departing Airport: LFRB
Destination Airport: LFMP
Alternate Airport:LFBO
Online: VATSIM
Route:ROSPO DCT DEGEX UN490 TERPO UM616 TUPAR UM184 CNA UN863 AGN UN727 TOU/N310F190 R17 MORIL
Flight Level:F330
No Slew and time accel
No pause
Crash detect
Detect pilot in Cockpit between each 30 and 45 minutes
09:41 Zero fuel Weight: 80492 Lbs, Fuel Weight: 10822 Lbs
09:41 VATSIM:LFRB 270930Z 33008KT 290V360 9999 SCT016 SCT037 21/16 Q1020 NOSIG
09:41 VATSIM:LFMP 270930Z 32014KT 9999 SCT040 SCT230 28/15 Q1016 NOSIG
09:42 Parking Brakes off
09:52 Take-off
09:52 Take off Weight: 90782 Lbs
09:52 Wind: 327º @ 008 Knots Heading: 068º
09:52 POS N48º 26´ 56´´ W004º 24´ 48´´
09:52 Flaps:1 at 176 Knots
09:52 Gear Up: 181 Knots
09:53 Flaps:0 at 206 Knots
10:07 Wind:000º@062 Knots Heading: 105º Ground Speed: 331 Knots Altitude 29429 ft
10:10 TOC
10:10 Fuel Weight: 8276 Lb
10:22 Wind:319º@020 Knots Heading: 136º Ground Speed: 401 Knots Altitude 33169 ft
10:37 Wind:316º@016 Knots Heading: 156º Ground Speed: 420 Knots Altitude 33169 ft
10:50 TOD
10:50 Fuel Weight: 5830 Lb
10:52 Wind:324º@013 Knots Heading: 155º Ground Speed: 409 Knots Altitude 29366 ft
11:07 Wind:301º@031 Knots Heading: 130º Ground Speed: 334 Knots Altitude 10587 ft
11:16 Flaps:1 at 190 Knots
11:16 Flaps:2 at 175 Knots
11:17 Gear Down: 162 Knots
11:17 Flaps:3 at 155 Knots
11:18 Flaps:4 at 135 Knots
11:18 TouchDown:Rate -180 ft/min Speed: 114 Knots
11:19 VATSIM:LFMP 271100Z 34015KT 290V050 9999 SCT043 SCT230 30/15 Q1016 NOSIG
11:19 Land
11:19 Wind:331º@015 Knots
11:19 Heading: 325º
11:19 Flight Duration: 01:27
11:19 Landing Weight: 85312 Lbs
11:19 POS N42º 44´ 39´´ E002º 52´ 12´´
11:23 Parking brakes on
11:23 Block to Block Duration: 01:41
11:23 Final Fuel: 4653 Lbls
11:23 Spent Fuel: 6168 Lbls
11:23 Flight Length: 507 NM
11:23 TOD Land Length: 150 NM

Exportar CSV

Powered by Drupal - Modified by Danger4k